sensor_id;sensor_type;location;lat;lon;timestamp;P1;durP1;ratioP1;P2;durP2;ratioP2
80261;SDS011;69567;47.574;8.580;2024-02-15T00:01:30;1.13;;;0.93;;
80261;SDS011;69567;47.574;8.580;2024-02-15T00:03:58;2.08;;;1.05;;
80261;SDS011;69567;47.574;8.580;2024-02-15T00:06:26;2.10;;;0.90;;
80261;SDS011;69567;47.574;8.580;2024-02-15T00:08:54;1.27;;;0.85;;
80261;SDS011;69567;47.574;8.580;2024-02-15T00:11:22;1.38;;;1.00;;
80261;SDS011;69567;47.574;8.580;2024-02-15T00:13:50;1.00;;;0.80;;
80261;SDS011;69567;47.574;8.580;2024-02-15T00:16:19;0.88;;;0.70;;
80261;SDS011;69567;47.574;8.580;2024-02-15T00:18:48;2.15;;;0.80;;
80261;SDS011;69567;47.574;8.580;2024-02-15T00:21:17;1.45;;;1.08;;
80261;SDS011;69567;47.574;8.580;2024-02-15T00:23:45;1.02;;;0.93;;
80261;SDS011;69567;47.574;8.580;2024-02-15T00:26:13;1.40;;;0.82;;
80261;SDS011;69567;47.574;8.580;2024-02-15T00:28:41;1.27;;;1.05;;
80261;SDS011;69567;47.574;8.580;2024-02-15T00:31:08;1.10;;;0.77;;
80261;SDS011;69567;47.574;8.580;2024-02-15T00:33:36;1.67;;;0.70;;
80261;SDS011;69567;47.574;8.580;2024-02-15T00:36:07;1.08;;;0.88;;
80261;SDS011;69567;47.574;8.580;2024-02-15T00:38:35;2.15;;;1.15;;
80261;SDS011;69567;47.574;8.580;2024-02-15T00:41:04;1.52;;;1.27;;
80261;SDS011;69567;47.574;8.580;2024-02-15T00:43:34;1.17;;;1.02;;
80261;SDS011;69567;47.574;8.580;2024-02-15T00:46:02;1.00;;;0.90;;
80261;SDS011;69567;47.574;8.580;2024-02-15T00:48:30;1.13;;;1.02;;
80261;SDS011;69567;47.574;8.580;2024-02-15T00:50:58;0.77;;;0.70;;
80261;SDS011;69567;47.574;8.580;2024-02-15T00:53:28;1.20;;;1.10;;
80261;SDS011;69567;47.574;8.580;2024-02-15T00:55:56;0.90;;;0.90;;
80261;SDS011;69567;47.574;8.580;2024-02-15T00:58:24;1.10;;;0.82;;
80261;SDS011;69567;47.574;8.580;2024-02-15T01:00:53;1.33;;;0.80;;
80261;SDS011;69567;47.574;8.580;2024-02-15T01:03:21;1.58;;;1.05;;
80261;SDS011;69567;47.574;8.580;2024-02-15T01:05:49;1.23;;;0.80;;
80261;SDS011;69567;47.574;8.580;2024-02-15T01:08:18;0.80;;;0.70;;
80261;SDS011;69567;47.574;8.580;2024-02-15T01:10:48;1.42;;;0.80;;
80261;SDS011;69567;47.574;8.580;2024-02-15T01:13:15;1.95;;;0.98;;
80261;SDS011;69567;47.574;8.580;2024-02-15T01:15:44;1.20;;;1.08;;
80261;SDS011;69567;47.574;8.580;2024-02-15T01:18:12;1.80;;;0.80;;
80261;SDS011;69567;47.574;8.580;2024-02-15T01:20:40;0.75;;;0.75;;
80261;SDS011;69567;47.574;8.580;2024-02-15T01:23:08;0.90;;;0.70;;
80261;SDS011;69567;47.574;8.580;2024-02-15T01:25:36;3.47;;;1.10;;
80261;SDS011;69567;47.574;8.580;2024-02-15T01:28:05;1.02;;;1.00;;
80261;SDS011;69567;47.574;8.580;2024-02-15T01:30:33;1.17;;;1.02;;
80261;SDS011;69567;47.574;8.580;2024-02-15T01:33:01;1.10;;;0.80;;
80261;SDS011;69567;47.574;8.580;2024-02-15T01:35:29;2.03;;;1.30;;
80261;SDS011;69567;47.574;8.580;2024-02-15T01:37:58;0.88;;;0.73;;
80261;SDS011;69567;47.574;8.580;2024-02-15T01:40:26;1.13;;;0.95;;
80261;SDS011;69567;47.574;8.580;2024-02-15T01:42:54;1.40;;;1.08;;
80261;SDS011;69567;47.574;8.580;2024-02-15T01:45:23;1.40;;;0.98;;
80261;SDS011;69567;47.574;8.580;2024-02-15T01:47:51;1.63;;;0.82;;
80261;SDS011;69567;47.574;8.580;2024-02-15T01:50:20;1.77;;;1.17;;
80261;SDS011;69567;47.574;8.580;2024-02-15T01:52:49;2.53;;;0.90;;
80261;SDS011;69567;47.574;8.580;2024-02-15T01:55:17;2.35;;;1.00;;
80261;SDS011;69567;47.574;8.580;2024-02-15T01:57:45;1.10;;;0.80;;
80261;SDS011;69567;47.574;8.580;2024-02-15T02:00:14;1.38;;;0.90;;
80261;SDS011;69567;47.574;8.580;2024-02-15T02:02:46;1.20;;;0.60;;
80261;SDS011;69567;47.574;8.580;2024-02-15T02:05:14;2.13;;;0.88;;
80261;SDS011;69567;47.574;8.580;2024-02-15T02:07:42;1.08;;;0.95;;
80261;SDS011;69567;47.574;8.580;2024-02-15T02:10:10;1.60;;;0.95;;
80261;SDS011;69567;47.574;8.580;2024-02-15T02:12:39;0.77;;;0.73;;
80261;SDS011;69567;47.574;8.580;2024-02-15T02:15:09;1.15;;;0.77;;
80261;SDS011;69567;47.574;8.580;2024-02-15T02:17:37;0.95;;;0.77;;
80261;SDS011;69567;47.574;8.580;2024-02-15T02:20:09;1.92;;;0.80;;
80261;SDS011;69567;47.574;8.580;2024-02-15T02:22:40;1.42;;;1.20;;
80261;SDS011;69567;47.574;8.580;2024-02-15T02:25:13;3.90;;;1.90;;
80261;SDS011;69567;47.574;8.580;2024-02-15T02:27:41;3.63;;;1.80;;
80261;SDS011;69567;47.574;8.580;2024-02-15T02:30:12;1.75;;;1.13;;
80261;SDS011;69567;47.574;8.580;2024-02-15T02:32:42;3.17;;;1.17;;
80261;SDS011;69567;47.574;8.580;2024-02-15T02:35:10;0.93;;;0.80;;
80261;SDS011;69567;47.574;8.580;2024-02-15T02:37:39;2.40;;;1.02;;
80261;SDS011;69567;47.574;8.580;2024-02-15T02:40:07;1.52;;;0.80;;
80261;SDS011;69567;47.574;8.580;2024-02-15T02:42:38;1.23;;;0.95;;
80261;SDS011;69567;47.574;8.580;2024-02-15T02:45:14;0.85;;;0.63;;
80261;SDS011;69567;47.574;8.580;2024-02-15T02:47:41;2.08;;;0.95;;
80261;SDS011;69567;47.574;8.580;2024-02-15T02:50:09;1.60;;;0.93;;
80261;SDS011;69567;47.574;8.580;2024-02-15T02:52:38;1.50;;;0.98;;
80261;SDS011;69567;47.574;8.580;2024-02-15T02:55:07;0.95;;;0.90;;
80261;SDS011;69567;47.574;8.580;2024-02-15T02:57:35;2.33;;;1.08;;
80261;SDS011;69567;47.574;8.580;2024-02-15T03:00:07;2.47;;;0.90;;
80261;SDS011;69567;47.574;8.580;2024-02-15T03:02:37;1.65;;;1.10;;
80261;SDS011;69567;47.574;8.580;2024-02-15T03:05:05;1.77;;;1.10;;
80261;SDS011;69567;47.574;8.580;2024-02-15T03:07:35;2.10;;;1.00;;
80261;SDS011;69567;47.574;8.580;2024-02-15T03:10:03;1.13;;;0.73;;
80261;SDS011;69567;47.574;8.580;2024-02-15T03:12:35;1.70;;;1.20;;
80261;SDS011;69567;47.574;8.580;2024-02-15T03:15:03;1.30;;;1.10;;
80261;SDS011;69567;47.574;8.580;2024-02-15T03:17:33;1.10;;;0.85;;
80261;SDS011;69567;47.574;8.580;2024-02-15T03:20:00;0.95;;;0.93;;
80261;SDS011;69567;47.574;8.580;2024-02-15T03:22:37;1.52;;;0.88;;
80261;SDS011;69567;47.574;8.580;2024-02-15T03:25:05;1.50;;;1.08;;
80261;SDS011;69567;47.574;8.580;2024-02-15T03:30:04;1.17;;;0.70;;
80261;SDS011;69567;47.574;8.580;2024-02-15T03:32:33;1.50;;;0.80;;
80261;SDS011;69567;47.574;8.580;2024-02-15T03:35:01;1.08;;;0.95;;
80261;SDS011;69567;47.574;8.580;2024-02-15T03:37:29;1.85;;;1.02;;
80261;SDS011;69567;47.574;8.580;2024-02-15T03:39:57;2.17;;;1.30;;
80261;SDS011;69567;47.574;8.580;2024-02-15T03:42:25;1.38;;;1.10;;
80261;SDS011;69567;47.574;8.580;2024-02-15T03:44:54;1.55;;;0.88;;
80261;SDS011;69567;47.574;8.580;2024-02-15T03:47:22;1.55;;;1.00;;
80261;SDS011;69567;47.574;8.580;2024-02-15T03:49:51;1.42;;;1.10;;
80261;SDS011;69567;47.574;8.580;2024-02-15T03:52:20;1.77;;;0.70;;
80261;SDS011;69567;47.574;8.580;2024-02-15T03:54:50;0.82;;;0.80;;
80261;SDS011;69567;47.574;8.580;2024-02-15T03:57:19;1.33;;;0.98;;
80261;SDS011;69567;47.574;8.580;2024-02-15T03:59:47;1.40;;;1.10;;
80261;SDS011;69567;47.574;8.580;2024-02-15T04:02:17;1.17;;;1.08;;
80261;SDS011;69567;47.574;8.580;2024-02-15T04:04:45;0.88;;;0.77;;
80261;SDS011;69567;47.574;8.580;2024-02-15T04:07:15;2.17;;;0.90;;
80261;SDS011;69567;47.574;8.580;2024-02-15T04:09:43;0.85;;;0.75;;
80261;SDS011;69567;47.574;8.580;2024-02-15T04:12:11;1.50;;;0.82;;
80261;SDS011;69567;47.574;8.580;2024-02-15T04:14:40;1.08;;;0.73;;
80261;SDS011;69567;47.574;8.580;2024-02-15T04:17:11;1.73;;;0.70;;
80261;SDS011;69567;47.574;8.580;2024-02-15T04:19:40;0.95;;;0.80;;
80261;SDS011;69567;47.574;8.580;2024-02-15T04:22:08;1.05;;;0.90;;
80261;SDS011;69567;47.574;8.580;2024-02-15T04:24:38;1.05;;;0.70;;
80261;SDS011;69567;47.574;8.580;2024-02-15T04:27:06;1.17;;;0.95;;
80261;SDS011;69567;47.574;8.580;2024-02-15T04:29:35;1.20;;;0.70;;
80261;SDS011;69567;47.574;8.580;2024-02-15T04:32:04;0.77;;;0.77;;
80261;SDS011;69567;47.574;8.580;2024-02-15T04:34:35;1.15;;;0.70;;
80261;SDS011;69567;47.574;8.580;2024-02-15T04:37:03;1.85;;;1.00;;
80261;SDS011;69567;47.574;8.580;2024-02-15T04:39:33;0.85;;;0.68;;
80261;SDS011;69567;47.574;8.580;2024-02-15T04:42:03;1.02;;;0.63;;
80261;SDS011;69567;47.574;8.580;2024-02-15T04:44:33;1.25;;;0.80;;
80261;SDS011;69567;47.574;8.580;2024-02-15T04:47:02;2.08;;;0.98;;
80261;SDS011;69567;47.574;8.580;2024-02-15T04:49:30;0.73;;;0.70;;
80261;SDS011;69567;47.574;8.580;2024-02-15T04:51:58;1.15;;;0.90;;
80261;SDS011;69567;47.574;8.580;2024-02-15T04:54:29;1.08;;;0.95;;
80261;SDS011;69567;47.574;8.580;2024-02-15T04:56:57;0.80;;;0.80;;
80261;SDS011;69567;47.574;8.580;2024-02-15T04:59:26;1.20;;;0.82;;
80261;SDS011;69567;47.574;8.580;2024-02-15T05:01:55;1.55;;;1.10;;
80261;SDS011;69567;47.574;8.580;2024-02-15T05:04:23;1.65;;;1.10;;
80261;SDS011;69567;47.574;8.580;2024-02-15T05:06:52;1.00;;;0.70;;
80261;SDS011;69567;47.574;8.580;2024-02-15T05:09:20;1.73;;;0.90;;
80261;SDS011;69567;47.574;8.580;2024-02-15T05:11:49;1.30;;;0.90;;
80261;SDS011;69567;47.574;8.580;2024-02-15T05:14:17;1.40;;;0.85;;
80261;SDS011;69567;47.574;8.580;2024-02-15T05:16:49;1.00;;;0.88;;
80261;SDS011;69567;47.574;8.580;2024-02-15T05:19:17;0.98;;;0.88;;
80261;SDS011;69567;47.574;8.580;2024-02-15T05:21:45;1.90;;;0.93;;
80261;SDS011;69567;47.574;8.580;2024-02-15T05:24:14;1.02;;;0.93;;
80261;SDS011;69567;47.574;8.580;2024-02-15T05:26:43;1.13;;;0.90;;
80261;SDS011;69567;47.574;8.580;2024-02-15T05:29:13;1.00;;;0.80;;
80261;SDS011;69567;47.574;8.580;2024-02-15T05:31:42;0.90;;;0.70;;
80261;SDS011;69567;47.574;8.580;2024-02-15T05:34:11;0.63;;;0.63;;
80261;SDS011;69567;47.574;8.580;2024-02-15T05:36:39;1.15;;;0.65;;
80261;SDS011;69567;47.574;8.580;2024-02-15T05:39:07;0.90;;;0.70;;
80261;SDS011;69567;47.574;8.580;2024-02-15T05:41:38;0.60;;;0.60;;
80261;SDS011;69567;47.574;8.580;2024-02-15T05:44:06;3.40;;;1.33;;
80261;SDS011;69567;47.574;8.580;2024-02-15T05:46:34;1.20;;;0.82;;
80261;SDS011;69567;47.574;8.580;2024-02-15T05:49:05;0.82;;;0.70;;
80261;SDS011;69567;47.574;8.580;2024-02-15T05:51:34;0.80;;;0.80;;
80261;SDS011;69567;47.574;8.580;2024-02-15T05:54:02;0.50;;;0.50;;
80261;SDS011;69567;47.574;8.580;2024-02-15T05:56:30;0.77;;;0.77;;
80261;SDS011;69567;47.574;8.580;2024-02-15T05:58:58;1.08;;;0.80;;
80261;SDS011;69567;47.574;8.580;2024-02-15T06:01:28;0.88;;;0.77;;
80261;SDS011;69567;47.574;8.580;2024-02-15T06:03:57;1.02;;;0.80;;
80261;SDS011;69567;47.574;8.580;2024-02-15T06:06:24;0.50;;;0.50;;
80261;SDS011;69567;47.574;8.580;2024-02-15T06:08:54;0.70;;;0.70;;
80261;SDS011;69567;47.574;8.580;2024-02-15T06:11:26;0.95;;;0.80;;
80261;SDS011;69567;47.574;8.580;2024-02-15T06:13:54;0.85;;;0.70;;
80261;SDS011;69567;47.574;8.580;2024-02-15T06:16:21;0.93;;;0.93;;
80261;SDS011;69567;47.574;8.580;2024-02-15T06:18:49;1.08;;;0.80;;
80261;SDS011;69567;47.574;8.580;2024-02-15T06:21:17;1.27;;;0.65;;
80261;SDS011;69567;47.574;8.580;2024-02-15T06:23:47;1.52;;;0.77;;
80261;SDS011;69567;47.574;8.580;2024-02-15T06:26:18;0.80;;;0.80;;
80261;SDS011;69567;47.574;8.580;2024-02-15T06:28:47;0.98;;;0.88;;
80261;SDS011;69567;47.574;8.580;2024-02-15T06:31:33;1.15;;;0.60;;
80261;SDS011;69567;47.574;8.580;2024-02-15T06:34:18;0.82;;;0.70;;
80261;SDS011;69567;47.574;8.580;2024-02-15T06:37:03;0.95;;;0.65;;
80261;SDS011;69567;47.574;8.580;2024-02-15T06:39:49;1.17;;;0.88;;
80261;SDS011;69567;47.574;8.580;2024-02-15T06:42:19;0.98;;;0.80;;
80261;SDS011;69567;47.574;8.580;2024-02-15T06:44:48;0.88;;;0.80;;
80261;SDS011;69567;47.574;8.580;2024-02-15T06:47:16;1.13;;;0.90;;
80261;SDS011;69567;47.574;8.580;2024-02-15T06:49:45;1.90;;;1.10;;
80261;SDS011;69567;47.574;8.580;2024-02-15T06:52:16;0.80;;;0.80;;
80261;SDS011;69567;47.574;8.580;2024-02-15T06:54:44;1.00;;;0.90;;
80261;SDS011;69567;47.574;8.580;2024-02-15T06:57:13;0.88;;;0.75;;
80261;SDS011;69567;47.574;8.580;2024-02-15T06:59:45;0.65;;;0.65;;
80261;SDS011;69567;47.574;8.580;2024-02-15T07:02:13;1.25;;;0.80;;
80261;SDS011;69567;47.574;8.580;2024-02-15T07:04:41;1.67;;;0.88;;
80261;SDS011;69567;47.574;8.580;2024-02-15T07:07:09;1.42;;;0.90;;
80261;SDS011;69567;47.574;8.580;2024-02-15T07:09:38;1.63;;;1.00;;
80261;SDS011;69567;47.574;8.580;2024-02-15T07:12:06;1.95;;;0.90;;
80261;SDS011;69567;47.574;8.580;2024-02-15T07:14:34;0.80;;;0.80;;
80261;SDS011;69567;47.574;8.580;2024-02-15T07:17:04;0.85;;;0.77;;
80261;SDS011;69567;47.574;8.580;2024-02-15T07:19:31;1.52;;;1.08;;
80261;SDS011;69567;47.574;8.580;2024-02-15T07:22:03;1.40;;;0.85;;
80261;SDS011;69567;47.574;8.580;2024-02-15T07:24:31;1.02;;;0.85;;
80261;SDS011;69567;47.574;8.580;2024-02-15T07:26:58;1.42;;;1.00;;
80261;SDS011;69567;47.574;8.580;2024-02-15T07:29:26;1.40;;;0.82;;
80261;SDS011;69567;47.574;8.580;2024-02-15T07:31:54;1.00;;;0.90;;
80261;SDS011;69567;47.574;8.580;2024-02-15T07:34:23;1.02;;;0.90;;
80261;SDS011;69567;47.574;8.580;2024-02-15T07:36:53;0.70;;;0.70;;
80261;SDS011;69567;47.574;8.580;2024-02-15T07:39:20;1.02;;;0.68;;
80261;SDS011;69567;47.574;8.580;2024-02-15T07:41:51;1.20;;;0.82;;
80261;SDS011;69567;47.574;8.580;2024-02-15T07:44:19;1.63;;;0.88;;
80261;SDS011;69567;47.574;8.580;2024-02-15T07:46:48;1.20;;;0.80;;
80261;SDS011;69567;47.574;8.580;2024-02-15T07:49:17;1.13;;;0.77;;
80261;SDS011;69567;47.574;8.580;2024-02-15T07:51:47;1.05;;;0.80;;
80261;SDS011;69567;47.574;8.580;2024-02-15T07:54:19;1.05;;;0.98;;
80261;SDS011;69567;47.574;8.580;2024-02-15T07:56:48;1.70;;;1.10;;
80261;SDS011;69567;47.574;8.580;2024-02-15T07:59:16;1.58;;;1.00;;
80261;SDS011;69567;47.574;8.580;2024-02-15T08:01:44;2.17;;;1.08;;
80261;SDS011;69567;47.574;8.580;2024-02-15T08:04:16;1.35;;;1.10;;
80261;SDS011;69567;47.574;8.580;2024-02-15T08:06:48;0.88;;;0.80;;
80261;SDS011;69567;47.574;8.580;2024-02-15T08:09:17;1.00;;;0.80;;
80261;SDS011;69567;47.574;8.580;2024-02-15T08:11:48;1.10;;;0.90;;
80261;SDS011;69567;47.574;8.580;2024-02-15T08:14:16;1.48;;;0.80;;
80261;SDS011;69567;47.574;8.580;2024-02-15T08:16:44;1.58;;;1.17;;
80261;SDS011;69567;47.574;8.580;2024-02-15T08:19:12;1.98;;;1.20;;
80261;SDS011;69567;47.574;8.580;2024-02-15T08:21:40;1.08;;;0.82;;
80261;SDS011;69567;47.574;8.580;2024-02-15T08:26:42;1.10;;;1.00;;
80261;SDS011;69567;47.574;8.580;2024-02-15T08:29:10;1.25;;;1.05;;
80261;SDS011;69567;47.574;8.580;2024-02-15T08:31:40;1.20;;;0.80;;
80261;SDS011;69567;47.574;8.580;2024-02-15T08:34:09;1.05;;;1.02;;
80261;SDS011;69567;47.574;8.580;2024-02-15T08:36:40;1.40;;;1.20;;
80261;SDS011;69567;47.574;8.580;2024-02-15T08:39:08;1.15;;;1.05;;
80261;SDS011;69567;47.574;8.580;2024-02-15T08:41:39;1.55;;;1.10;;
80261;SDS011;69567;47.574;8.580;2024-02-15T08:44:08;2.47;;;1.30;;
80261;SDS011;69567;47.574;8.580;2024-02-15T08:46:41;1.58;;;1.35;;
80261;SDS011;69567;47.574;8.580;2024-02-15T08:49:09;2.15;;;1.48;;
80261;SDS011;69567;47.574;8.580;2024-02-15T08:51:40;1.20;;;1.10;;
80261;SDS011;69567;47.574;8.580;2024-02-15T08:54:08;1.70;;;1.23;;
80261;SDS011;69567;47.574;8.580;2024-02-15T08:56:36;1.35;;;1.20;;
80261;SDS011;69567;47.574;8.580;2024-02-15T08:59:04;1.85;;;1.10;;
80261;SDS011;69567;47.574;8.580;2024-02-15T09:01:33;1.73;;;1.60;;
80261;SDS011;69567;47.574;8.580;2024-02-15T09:04:01;1.33;;;1.23;;
80261;SDS011;69567;47.574;8.580;2024-02-15T09:06:30;2.28;;;1.52;;
80261;SDS011;69567;47.574;8.580;2024-02-15T09:08:58;2.35;;;1.40;;
80261;SDS011;69567;47.574;8.580;2024-02-15T09:11:28;1.58;;;1.10;;
80261;SDS011;69567;47.574;8.580;2024-02-15T09:13:56;0.60;;;0.60;;
80261;SDS011;69567;47.574;8.580;2024-02-15T09:16:24;0.75;;;0.75;;
80261;SDS011;69567;47.574;8.580;2024-02-15T09:18:53;2.72;;;1.38;;
80261;SDS011;69567;47.574;8.580;2024-02-15T09:21:22;1.25;;;1.15;;
80261;SDS011;69567;47.574;8.580;2024-02-15T09:23:51;2.13;;;1.25;;
80261;SDS011;69567;47.574;8.580;2024-02-15T09:26:19;1.90;;;1.70;;
80261;SDS011;69567;47.574;8.580;2024-02-15T09:28:47;2.08;;;1.73;;
80261;SDS011;69567;47.574;8.580;2024-02-15T09:31:15;2.38;;;1.73;;
80261;SDS011;69567;47.574;8.580;2024-02-15T09:33:42;1.92;;;1.65;;
80261;SDS011;69567;47.574;8.580;2024-02-15T09:36:13;2.78;;;2.13;;
80261;SDS011;69567;47.574;8.580;2024-02-15T09:38:42;2.45;;;1.85;;
80261;SDS011;69567;47.574;8.580;2024-02-15T09:41:10;1.73;;;1.33;;
80261;SDS011;69567;47.574;8.580;2024-02-15T09:43:38;1.83;;;1.73;;
80261;SDS011;69567;47.574;8.580;2024-02-15T09:46:06;2.00;;;1.85;;
80261;SDS011;69567;47.574;8.580;2024-02-15T09:48:33;0.93;;;0.82;;
80261;SDS011;69567;47.574;8.580;2024-02-15T09:51:02;2.05;;;1.52;;
80261;SDS011;69567;47.574;8.580;2024-02-15T09:53:32;2.95;;;1.80;;
80261;SDS011;69567;47.574;8.580;2024-02-15T09:56:01;2.78;;;1.95;;
80261;SDS011;69567;47.574;8.580;2024-02-15T09:58:33;2.67;;;2.28;;
80261;SDS011;69567;47.574;8.580;2024-02-15T10:01:01;1.73;;;1.63;;
80261;SDS011;69567;47.574;8.580;2024-02-15T10:03:32;2.75;;;2.05;;
80261;SDS011;69567;47.574;8.580;2024-02-15T10:06:01;0.80;;;0.80;;
80261;SDS011;69567;47.574;8.580;2024-02-15T10:08:29;0.10;;;0.10;;
80261;SDS011;69567;47.574;8.580;2024-02-15T10:11:07;1.00;;;0.95;;
80261;SDS011;69567;47.574;8.580;2024-02-15T10:13:37;0.28;;;0.17;;
80261;SDS011;69567;47.574;8.580;2024-02-15T10:16:13;0.35;;;0.20;;
80261;SDS011;69567;47.574;8.580;2024-02-15T10:18:41;0.40;;;0.40;;
80261;SDS011;69567;47.574;8.580;2024-02-15T10:21:10;1.42;;;1.17;;
80261;SDS011;69567;47.574;8.580;2024-02-15T10:23:38;0.40;;;0.40;;
80261;SDS011;69567;47.574;8.580;2024-02-15T10:26:20;0.50;;;0.40;;
80261;SDS011;69567;47.574;8.580;2024-02-15T10:29:04;0.73;;;0.57;;
80261;SDS011;69567;47.574;8.580;2024-02-15T10:31:33;0.40;;;0.40;;
80261;SDS011;69567;47.574;8.580;2024-02-15T10:34:02;0.40;;;0.40;;
80261;SDS011;69567;47.574;8.580;2024-02-15T10:36:31;1.02;;;0.93;;
80261;SDS011;69567;47.574;8.580;2024-02-15T10:39:10;1.45;;;1.35;;
80261;SDS011;69567;47.574;8.580;2024-02-15T10:41:40;1.23;;;0.77;;
80261;SDS011;69567;47.574;8.580;2024-02-15T10:44:08;3.10;;;1.20;;
80261;SDS011;69567;47.574;8.580;2024-02-15T10:46:36;1.50;;;1.35;;
80261;SDS011;69567;47.574;8.580;2024-02-15T10:49:05;1.27;;;1.17;;
80261;SDS011;69567;47.574;8.580;2024-02-15T10:51:33;1.50;;;1.40;;
80261;SDS011;69567;47.574;8.580;2024-02-15T10:54:02;3.08;;;1.60;;
80261;SDS011;69567;47.574;8.580;2024-02-15T10:56:33;2.22;;;1.35;;
80261;SDS011;69567;47.574;8.580;2024-02-15T10:59:10;2.50;;;1.73;;
80261;SDS011;69567;47.574;8.580;2024-02-15T11:01:41;1.73;;;1.52;;
80261;SDS011;69567;47.574;8.580;2024-02-15T11:04:14;1.80;;;1.70;;
80261;SDS011;69567;47.574;8.580;2024-02-15T11:06:42;1.25;;;1.15;;
80261;SDS011;69567;47.574;8.580;2024-02-15T11:09:11;3.00;;;1.70;;
80261;SDS011;69567;47.574;8.580;2024-02-15T11:11:40;3.42;;;2.22;;
80261;SDS011;69567;47.574;8.580;2024-02-15T11:14:24;1.40;;;1.30;;
80261;SDS011;69567;47.574;8.580;2024-02-15T11:16:52;0.60;;;0.47;;
80261;SDS011;69567;47.574;8.580;2024-02-15T11:22:08;0.25;;;0.25;;
80261;SDS011;69567;47.574;8.580;2024-02-15T11:24:44;0.73;;;0.73;;
80261;SDS011;69567;47.574;8.580;2024-02-15T11:27:13;1.98;;;1.65;;
80261;SDS011;69567;47.574;8.580;2024-02-15T11:29:52;2.08;;;1.67;;
80261;SDS011;69567;47.574;8.580;2024-02-15T11:32:34;2.53;;;1.90;;
80261;SDS011;69567;47.574;8.580;2024-02-15T11:35:02;2.28;;;2.08;;
80261;SDS011;69567;47.574;8.580;2024-02-15T11:37:52;2.40;;;1.80;;
80261;SDS011;69567;47.574;8.580;2024-02-15T11:42:50;2.03;;;1.52;;
80261;SDS011;69567;47.574;8.580;2024-02-15T11:45:21;3.83;;;2.10;;
80261;SDS011;69567;47.574;8.580;2024-02-15T11:47:49;3.28;;;1.90;;
80261;SDS011;69567;47.574;8.580;2024-02-15T11:50:18;3.25;;;1.90;;
80261;SDS011;69567;47.574;8.580;2024-02-15T11:52:47;2.70;;;2.35;;
80261;SDS011;69567;47.574;8.580;2024-02-15T11:55:18;0.30;;;0.30;;
80261;SDS011;69567;47.574;8.580;2024-02-15T11:57:56;0.30;;;0.30;;
80261;SDS011;69567;47.574;8.580;2024-02-15T12:00:31;1.45;;;0.82;;
80261;SDS011;69567;47.574;8.580;2024-02-15T12:03:31;2.63;;;1.63;;
80261;SDS011;69567;47.574;8.580;2024-02-15T12:06:30;0.50;;;0.50;;
80261;SDS011;69567;47.574;8.580;2024-02-15T12:09:17;0.63;;;0.60;;
80261;SDS011;69567;47.574;8.580;2024-02-15T12:12:03;0.50;;;0.50;;
80261;SDS011;69567;47.574;8.580;2024-02-15T12:14:44;0.35;;;0.35;;
80261;SDS011;69567;47.574;8.580;2024-02-15T12:17:32;0.40;;;0.40;;
80261;SDS011;69567;47.574;8.580;2024-02-15T12:20:17;0.75;;;0.43;;
80261;SDS011;69567;47.574;8.580;2024-02-15T12:22:52;0.93;;;0.63;;
80261;SDS011;69567;47.574;8.580;2024-02-15T12:25:20;0.30;;;0.30;;
80261;SDS011;69567;47.574;8.580;2024-02-15T12:27:52;0.28;;;0.28;;
80261;SDS011;69567;47.574;8.580;2024-02-15T12:30:20;0.30;;;0.30;;
80261;SDS011;69567;47.574;8.580;2024-02-15T12:32:50;0.55;;;0.30;;
80261;SDS011;69567;47.574;8.580;2024-02-15T12:35:19;0.77;;;0.77;;
80261;SDS011;69567;47.574;8.580;2024-02-15T12:37:47;0.73;;;0.70;;
80261;SDS011;69567;47.574;8.580;2024-02-15T12:40:16;1.17;;;0.40;;
80261;SDS011;69567;47.574;8.580;2024-02-15T12:42:44;1.48;;;0.93;;
80261;SDS011;69567;47.574;8.580;2024-02-15T12:45:16;0.40;;;0.28;;
80261;SDS011;69567;47.574;8.580;2024-02-15T12:47:50;0.22;;;0.20;;
80261;SDS011;69567;47.574;8.580;2024-02-15T12:50:19;1.08;;;0.50;;
80261;SDS011;69567;47.574;8.580;2024-02-15T12:52:48;0.20;;;0.20;;
80261;SDS011;69567;47.574;8.580;2024-02-15T12:55:17;0.77;;;0.77;;
80261;SDS011;69567;47.574;8.580;2024-02-15T12:57:47;1.77;;;0.60;;
80261;SDS011;69567;47.574;8.580;2024-02-15T13:00:17;1.20;;;1.10;;
80261;SDS011;69567;47.574;8.580;2024-02-15T13:02:48;0.40;;;0.40;;
80261;SDS011;69567;47.574;8.580;2024-02-15T13:05:18;0.60;;;0.60;;
80261;SDS011;69567;47.574;8.580;2024-02-15T13:07:48;0.40;;;0.40;;
80261;SDS011;69567;47.574;8.580;2024-02-15T13:10:16;0.73;;;0.47;;
80261;SDS011;69567;47.574;8.580;2024-02-15T13:12:44;1.17;;;0.82;;
80261;SDS011;69567;47.574;8.580;2024-02-15T13:15:13;0.30;;;0.30;;
80261;SDS011;69567;47.574;8.580;2024-02-15T13:17:43;0.30;;;0.20;;
80261;SDS011;69567;47.574;8.580;2024-02-15T13:20:12;0.50;;;0.30;;
80261;SDS011;69567;47.574;8.580;2024-02-15T13:22:42;1.13;;;0.65;;
80261;SDS011;69567;47.574;8.580;2024-02-15T13:25:11;0.60;;;0.60;;
80261;SDS011;69567;47.574;8.580;2024-02-15T13:27:39;0.47;;;0.47;;
80261;SDS011;69567;47.574;8.580;2024-02-15T13:30:07;1.10;;;0.63;;
80261;SDS011;69567;47.574;8.580;2024-02-15T13:32:36;1.05;;;0.57;;
80261;SDS011;69567;47.574;8.580;2024-02-15T13:35:05;0.30;;;0.30;;
80261;SDS011;69567;47.574;8.580;2024-02-15T13:37:42;0.20;;;0.20;;
80261;SDS011;69567;47.574;8.580;2024-02-15T13:40:11;0.40;;;0.40;;
80261;SDS011;69567;47.574;8.580;2024-02-15T13:42:42;0.30;;;0.30;;
80261;SDS011;69567;47.574;8.580;2024-02-15T13:45:16;0.30;;;0.30;;
80261;SDS011;69567;47.574;8.580;2024-02-15T13:47:47;0.60;;;0.30;;
80261;SDS011;69567;47.574;8.580;2024-02-15T13:50:15;0.20;;;0.20;;
80261;SDS011;69567;47.574;8.580;2024-02-15T13:52:45;0.52;;;0.25;;
80261;SDS011;69567;47.574;8.580;2024-02-15T13:55:13;0.63;;;0.55;;
80261;SDS011;69567;47.574;8.580;2024-02-15T13:57:41;0.30;;;0.30;;
80261;SDS011;69567;47.574;8.580;2024-02-15T14:00:09;0.50;;;0.40;;
80261;SDS011;69567;47.574;8.580;2024-02-15T14:02:41;0.73;;;0.60;;
80261;SDS011;69567;47.574;8.580;2024-02-15T14:05:10;0.28;;;0.28;;
80261;SDS011;69567;47.574;8.580;2024-02-15T14:07:38;0.60;;;0.60;;
80261;SDS011;69567;47.574;8.580;2024-02-15T14:10:08;1.92;;;1.27;;
80261;SDS011;69567;47.574;8.580;2024-02-15T14:12:37;2.25;;;1.00;;
80261;SDS011;69567;47.574;8.580;2024-02-15T14:15:05;0.70;;;0.40;;
80261;SDS011;69567;47.574;8.580;2024-02-15T14:17:33;0.43;;;0.22;;
80261;SDS011;69567;47.574;8.580;2024-02-15T14:20:01;0.40;;;0.40;;
80261;SDS011;69567;47.574;8.580;2024-02-15T14:22:34;0.38;;;0.22;;
80261;SDS011;69567;47.574;8.580;2024-02-15T14:25:03;0.40;;;0.40;;
80261;SDS011;69567;47.574;8.580;2024-02-15T14:27:33;0.30;;;0.30;;
80261;SDS011;69567;47.574;8.580;2024-02-15T14:30:01;0.60;;;0.50;;
80261;SDS011;69567;47.574;8.580;2024-02-15T14:32:46;0.15;;;0.15;;
80261;SDS011;69567;47.574;8.580;2024-02-15T14:35:32;0.25;;;0.17;;
80261;SDS011;69567;47.574;8.580;2024-02-15T14:38:02;0.88;;;0.30;;
80261;SDS011;69567;47.574;8.580;2024-02-15T14:40:33;0.40;;;0.40;;
80261;SDS011;69567;47.574;8.580;2024-02-15T14:43:05;0.30;;;0.13;;
80261;SDS011;69567;47.574;8.580;2024-02-15T14:45:34;2.03;;;0.30;;
80261;SDS011;69567;47.574;8.580;2024-02-15T14:48:03;0.22;;;0.22;;
80261;SDS011;69567;47.574;8.580;2024-02-15T14:50:31;0.20;;;0.20;;
80261;SDS011;69567;47.574;8.580;2024-02-15T14:52:59;0.13;;;0.13;;
80261;SDS011;69567;47.574;8.580;2024-02-15T14:55:27;0.25;;;0.22;;
80261;SDS011;69567;47.574;8.580;2024-02-15T14:57:55;0.38;;;0.20;;
80261;SDS011;69567;47.574;8.580;2024-02-15T15:00:31;0.85;;;0.60;;
80261;SDS011;69567;47.574;8.580;2024-02-15T15:03:02;0.38;;;0.38;;
80261;SDS011;69567;47.574;8.580;2024-02-15T15:05:30;1.23;;;0.40;;
80261;SDS011;69567;47.574;8.580;2024-02-15T15:08:16;0.95;;;0.30;;
80261;SDS011;69567;47.574;8.580;2024-02-15T15:11:01;1.42;;;0.60;;
80261;SDS011;69567;47.574;8.580;2024-02-15T15:13:47;0.70;;;0.40;;
80261;SDS011;69567;47.574;8.580;2024-02-15T15:16:16;0.32;;;0.32;;